sensor_id;sensor_type;location;lat;lon;timestamp;pressure;altitude;pressure_sealevel;temperature;humidity
56992;BME280;42885;49.754;18.636;2023-03-13T00:02:09;97907.59;;;10.44;62.19
56992;BME280;42885;49.754;18.636;2023-03-13T00:04:40;97900.31;;;10.42;62.44
56992;BME280;42885;49.754;18.636;2023-03-13T00:07:12;97903.45;;;10.40;62.75
56992;BME280;42885;49.754;18.636;2023-03-13T00:09:44;97905.61;;;10.48;62.67
56992;BME280;42885;49.754;18.636;2023-03-13T00:12:16;97906.13;;;10.53;62.54
56992;BME280;42885;49.754;18.636;2023-03-13T00:14:47;97901.56;;;10.50;63.06
56992;BME280;42885;49.754;18.636;2023-03-13T00:17:19;97901.31;;;10.40;61.71
56992;BME280;42885;49.754;18.636;2023-03-13T00:19:50;97911.39;;;9.91;59.54
56992;BME280;42885;49.754;18.636;2023-03-13T00:24:54;97901.04;;;9.82;59.24
56992;BME280;42885;49.754;18.636;2023-03-13T00:27:25;97892.10;;;9.79;59.00
56992;BME280;42885;49.754;18.636;2023-03-13T00:29:56;97895.61;;;9.50;60.30
56992;BME280;42885;49.754;18.636;2023-03-13T00:32:28;97887.92;;;9.62;60.27
56992;BME280;42885;49.754;18.636;2023-03-13T00:34:59;97892.48;;;9.73;59.71
56992;BME280;42885;49.754;18.636;2023-03-13T00:37:31;97879.53;;;9.71;60.45
56992;BME280;42885;49.754;18.636;2023-03-13T00:40:03;97870.63;;;9.74;60.57
56992;BME280;42885;49.754;18.636;2023-03-13T00:42:34;97870.63;;;9.74;60.57
56992;BME280;42885;49.754;18.636;2023-03-13T00:45:06;97870.84;;;9.71;60.84
56992;BME280;42885;49.754;18.636;2023-03-13T00:47:37;97865.42;;;10.01;59.59
56992;BME280;42885;49.754;18.636;2023-03-13T00:50:09;97870.25;;;9.80;60.20
56992;BME280;42885;49.754;18.636;2023-03-13T00:52:40;97863.73;;;9.73;61.58
56992;BME280;42885;49.754;18.636;2023-03-13T00:55:11;97860.03;;;9.97;60.60
56992;BME280;42885;49.754;18.636;2023-03-13T00:57:42;97848.08;;;9.93;61.13
56992;BME280;42885;49.754;18.636;2023-03-13T01:00:14;97860.55;;;10.02;61.10
56992;BME280;42885;49.754;18.636;2023-03-13T01:02:45;97856.09;;;10.04;61.38
56992;BME280;42885;49.754;18.636;2023-03-13T01:05:16;97856.03;;;10.12;61.05
56992;BME280;42885;49.754;18.636;2023-03-13T01:07:47;97850.67;;;10.00;61.08
56992;BME280;42885;49.754;18.636;2023-03-13T01:10:19;97845.68;;;9.90;62.12
56992;BME280;42885;49.754;18.636;2023-03-13T01:12:51;97842.72;;;9.82;63.25
56992;BME280;42885;49.754;18.636;2023-03-13T01:15:22;97846.30;;;9.73;64.03
56992;BME280;42885;49.754;18.636;2023-03-13T01:17:53;97849.59;;;9.62;64.66
56992;BME280;42885;49.754;18.636;2023-03-13T01:20:24;97850.52;;;9.69;64.17
56992;BME280;42885;49.754;18.636;2023-03-13T01:22:55;97850.81;;;9.57;64.24
56992;BME280;42885;49.754;18.636;2023-03-13T01:25:27;97848.23;;;9.84;63.73
56992;BME280;42885;49.754;18.636;2023-03-13T01:27:58;97849.11;;;9.90;63.35
56992;BME280;42885;49.754;18.636;2023-03-13T01:30:30;97848.52;;;10.00;63.28
56992;BME280;42885;49.754;18.636;2023-03-13T01:33:02;97855.84;;;9.95;63.44
56992;BME280;42885;49.754;18.636;2023-03-13T01:35:33;97852.48;;;9.93;63.38
56992;BME280;42885;49.754;18.636;2023-03-13T01:38:04;97845.79;;;9.81;63.84
56992;BME280;42885;49.754;18.636;2023-03-13T01:40:46;97843.41;;;9.98;63.65
56992;BME280;42885;49.754;18.636;2023-03-13T01:46:02;97833.30;;;9.79;65.61
56992;BME280;42885;49.754;18.636;2023-03-13T01:51:44;97840.58;;;10.01;64.71
56992;BME280;42885;49.754;18.636;2023-03-13T01:54:31;97840.58;;;10.01;64.71
56992;BME280;42885;49.754;18.636;2023-03-13T02:02:52;97852.33;;;9.81;64.57
56992;BME280;42885;49.754;18.636;2023-03-13T02:05:19;97857.77;;;10.05;63.56
56992;BME280;42885;49.754;18.636;2023-03-13T02:08:02;97850.33;;;9.92;63.05
56992;BME280;42885;49.754;18.636;2023-03-13T02:10:37;97850.33;;;9.92;63.05
56992;BME280;42885;49.754;18.636;2023-03-13T02:13:07;97851.57;;;9.86;64.61
56992;BME280;42885;49.754;18.636;2023-03-13T02:15:40;97858.27;;;9.90;64.62
56992;BME280;42885;49.754;18.636;2023-03-13T02:18:12;97865.23;;;9.77;66.08
56992;BME280;42885;49.754;18.636;2023-03-13T02:20:43;97857.73;;;9.85;65.45
56992;BME280;42885;49.754;18.636;2023-03-13T02:23:30;97854.89;;;9.96;65.70
56992;BME280;42885;49.754;18.636;2023-03-13T02:25:56;97867.23;;;9.94;66.49
56992;BME280;42885;49.754;18.636;2023-03-13T02:28:29;97865.18;;;10.12;65.72
56992;BME280;42885;49.754;18.636;2023-03-13T02:31:02;97873.28;;;10.62;63.83
56992;BME280;42885;49.754;18.636;2023-03-13T02:33:36;97883.88;;;9.85;67.70
56992;BME280;42885;49.754;18.636;2023-03-13T02:36:07;97876.09;;;9.98;68.08
56992;BME280;42885;49.754;18.636;2023-03-13T02:38:43;97876.09;;;9.98;67.87
56992;BME280;42885;49.754;18.636;2023-03-13T02:41:13;97878.72;;;9.91;69.16
56992;BME280;42885;49.754;18.636;2023-03-13T02:43:45;97870.69;;;9.87;69.14
56992;BME280;42885;49.754;18.636;2023-03-13T02:46:19;97880.23;;;9.88;69.65
56992;BME280;42885;49.754;18.636;2023-03-13T02:48:54;97873.65;;;9.95;69.62
56992;BME280;42885;49.754;18.636;2023-03-13T02:51:39;97875.34;;;10.16;69.55
56992;BME280;42885;49.754;18.636;2023-03-13T02:54:13;97879.02;;;10.34;68.37
56992;BME280;42885;49.754;18.636;2023-03-13T02:56:47;97882.19;;;10.32;67.80
56992;BME280;42885;49.754;18.636;2023-03-13T02:59:19;97880.36;;;10.27;68.53
56992;BME280;42885;49.754;18.636;2023-03-13T03:01:51;97884.50;;;10.44;67.56
56992;BME280;42885;49.754;18.636;2023-03-13T03:04:24;97884.62;;;10.42;67.61
56992;BME280;42885;49.754;18.636;2023-03-13T03:06:57;97891.09;;;10.29;68.40
56992;BME280;42885;49.754;18.636;2023-03-13T03:09:29;97890.30;;;10.35;68.75
56992;BME280;42885;49.754;18.636;2023-03-13T03:12:01;97894.59;;;10.15;69.46
56992;BME280;42885;49.754;18.636;2023-03-13T03:14:32;97896.76;;;10.77;66.81
56992;BME280;42885;49.754;18.636;2023-03-13T03:17:03;97897.05;;;10.11;69.89
56992;BME280;42885;49.754;18.636;2023-03-13T03:19:35;97897.34;;;10.07;70.98
56992;BME280;42885;49.754;18.636;2023-03-13T03:22:06;97897.16;;;10.02;72.06
56992;BME280;42885;49.754;18.636;2023-03-13T03:24:37;97905.47;;;10.09;73.06
56992;BME280;42885;49.754;18.636;2023-03-13T03:27:08;97897.78;;;10.13;72.85
56992;BME280;42885;49.754;18.636;2023-03-13T03:29:41;97903.09;;;10.12;73.06
56992;BME280;42885;49.754;18.636;2023-03-13T03:32:13;97900.95;;;10.18;73.19
56992;BME280;42885;49.754;18.636;2023-03-13T03:34:44;97906.38;;;10.08;74.27
56992;BME280;42885;49.754;18.636;2023-03-13T03:37:16;97900.34;;;10.28;73.83
56992;BME280;42885;49.754;18.636;2023-03-13T03:39:47;97892.83;;;10.43;73.09
56992;BME280;42885;49.754;18.636;2023-03-13T03:42:18;97885.69;;;10.25;73.22
56992;BME280;42885;49.754;18.636;2023-03-13T03:44:49;97887.59;;;10.16;74.46
56992;BME280;42885;49.754;18.636;2023-03-13T03:47:22;97887.78;;;10.33;73.59
56992;BME280;42885;49.754;18.636;2023-03-13T03:49:53;97890.61;;;10.30;73.76
56992;BME280;42885;49.754;18.636;2023-03-13T03:52:24;97891.13;;;10.22;74.29
56992;BME280;42885;49.754;18.636;2023-03-13T03:54:56;97895.71;;;10.18;75.13
56992;BME280;42885;49.754;18.636;2023-03-13T03:57:27;97897.17;;;10.23;75.57
56992;BME280;42885;49.754;18.636;2023-03-13T03:59:58;97900.80;;;10.00;76.66
56992;BME280;42885;49.754;18.636;2023-03-13T04:02:30;97903.69;;;10.02;77.45
56992;BME280;42885;49.754;18.636;2023-03-13T04:05:01;97896.31;;;10.09;77.42
56992;BME280;42885;49.754;18.636;2023-03-13T04:07:33;97887.33;;;9.78;79.74
56992;BME280;42885;49.754;18.636;2023-03-13T04:10:04;97885.72;;;10.38;76.24
56992;BME280;42885;49.754;18.636;2023-03-13T04:12:40;97872.55;;;9.92;79.36
56992;BME280;42885;49.754;18.636;2023-03-13T04:15:12;97878.83;;;10.10;78.76
56992;BME280;42885;49.754;18.636;2023-03-13T04:17:43;97887.02;;;10.18;78.60
56992;BME280;42885;49.754;18.636;2023-03-13T04:20:15;97879.22;;;10.03;79.67
56992;BME280;42885;49.754;18.636;2023-03-13T04:22:46;97874.09;;;10.09;79.57
56992;BME280;42885;49.754;18.636;2023-03-13T04:25:19;97866.28;;;10.22;79.57
56992;BME280;42885;49.754;18.636;2023-03-13T04:27:51;97870.17;;;10.29;78.44
56992;BME280;42885;49.754;18.636;2023-03-13T04:30:24;97856.83;;;10.27;79.37
56992;BME280;42885;49.754;18.636;2023-03-13T04:33:06;97860.22;;;10.42;78.32
56992;BME280;42885;49.754;18.636;2023-03-13T04:35:45;97854.90;;;10.43;78.23
56992;BME280;42885;49.754;18.636;2023-03-13T04:38:26;97857.28;;;10.26;79.33
56992;BME280;42885;49.754;18.636;2023-03-13T04:41:08;97853.27;;;10.28;80.38
56992;BME280;42885;49.754;18.636;2023-03-13T04:43:58;97846.15;;;10.30;81.01
56992;BME280;42885;49.754;18.636;2023-03-13T04:46:33;97846.15;;;10.30;81.01
56992;BME280;42885;49.754;18.636;2023-03-13T04:49:18;97846.88;;;10.32;81.45
56992;BME280;42885;49.754;18.636;2023-03-13T04:51:57;97850.09;;;10.50;80.19
56992;BME280;42885;49.754;18.636;2023-03-13T04:54:30;97845.31;;;10.50;80.61
56992;BME280;42885;49.754;18.636;2023-03-13T04:57:08;97848.56;;;10.53;81.00
56992;BME280;42885;49.754;18.636;2023-03-13T04:59:41;97846.39;;;10.60;80.50
56992;BME280;42885;49.754;18.636;2023-03-13T05:02:30;97843.28;;;10.60;80.33
56992;BME280;42885;49.754;18.636;2023-03-13T05:05:17;97844.86;;;10.63;80.08
56992;BME280;42885;49.754;18.636;2023-03-13T05:07:56;97838.05;;;10.60;80.25
56992;BME280;42885;49.754;18.636;2023-03-13T05:10:45;97837.02;;;10.63;80.09
56992;BME280;42885;49.754;18.636;2023-03-13T05:13:21;97834.62;;;10.73;79.27
56992;BME280;42885;49.754;18.636;2023-03-13T05:15:54;97833.30;;;10.86;78.48
56992;BME280;42885;49.754;18.636;2023-03-13T05:18:27;97833.40;;;10.84;77.90
56992;BME280;42885;49.754;18.636;2023-03-13T05:21:06;97835.13;;;10.65;79.00
56992;BME280;42885;49.754;18.636;2023-03-13T05:23:57;97832.86;;;10.53;79.75
56992;BME280;42885;49.754;18.636;2023-03-13T05:26:29;97840.20;;;10.48;80.52
56992;BME280;42885;49.754;18.636;2023-03-13T05:29:01;97845.16;;;11.10;77.37
56992;BME280;42885;49.754;18.636;2023-03-13T05:31:34;97847.84;;;10.64;79.23
56992;BME280;42885;49.754;18.636;2023-03-13T05:34:16;97845.67;;;10.71;79.41
56992;BME280;42885;49.754;18.636;2023-03-13T05:36:55;97851.50;;;10.74;79.27
56992;BME280;42885;49.754;18.636;2023-03-13T05:39:44;97847.58;;;10.74;79.11
56992;BME280;42885;49.754;18.636;2023-03-13T05:42:17;97851.14;;;10.86;78.15
56992;BME280;42885;49.754;18.636;2023-03-13T05:44:52;97857.54;;;10.95;77.20
56992;BME280;42885;49.754;18.636;2023-03-13T05:47:31;97854.83;;;10.97;77.67
56992;BME280;42885;49.754;18.636;2023-03-13T05:50:10;97863.77;;;11.00;77.62
56992;BME280;42885;49.754;18.636;2023-03-13T05:52:43;97854.28;;;11.05;76.56
56992;BME280;42885;49.754;18.636;2023-03-13T05:55:32;97851.33;;;11.22;75.16
56992;BME280;42885;49.754;18.636;2023-03-13T05:58:06;97850.41;;;11.42;73.82
56992;BME280;42885;49.754;18.636;2023-03-13T06:00:54;97849.98;;;11.35;73.76
56992;BME280;42885;49.754;18.636;2023-03-13T06:03:32;97838.95;;;11.37;73.59
56992;BME280;42885;49.754;18.636;2023-03-13T06:06:04;97838.95;;;11.37;73.59
56992;BME280;42885;49.754;18.636;2023-03-13T06:08:37;97840.09;;;11.33;72.87
56992;BME280;42885;49.754;18.636;2023-03-13T06:11:09;97850.64;;;11.26;73.31
56992;BME280;42885;49.754;18.636;2023-03-13T06:13:41;97833.19;;;11.32;72.87
56992;BME280;42885;49.754;18.636;2023-03-13T06:16:14;97827.52;;;11.38;72.08
56992;BME280;42885;49.754;18.636;2023-03-13T06:18:47;97837.97;;;11.51;71.64
56992;BME280;42885;49.754;18.636;2023-03-13T06:21:18;97827.61;;;11.55;72.06
56992;BME280;42885;49.754;18.636;2023-03-13T06:23:50;97829.13;;;11.71;71.54
56992;BME280;42885;49.754;18.636;2023-03-13T06:26:21;97827.41;;;11.83;71.14
56992;BME280;42885;49.754;18.636;2023-03-13T06:28:54;97826.65;;;12.00;70.42
56992;BME280;42885;49.754;18.636;2023-03-13T06:31:25;97824.14;;;12.17;68.81
56992;BME280;42885;49.754;18.636;2023-03-13T06:33:56;97828.86;;;12.06;69.70
56992;BME280;42885;49.754;18.636;2023-03-13T06:36:28;97822.55;;;12.08;69.54
56992;BME280;42885;49.754;18.636;2023-03-13T06:38:59;97815.76;;;12.11;69.74
56992;BME280;42885;49.754;18.636;2023-03-13T06:41:30;97814.72;;;12.20;69.20
56992;BME280;42885;49.754;18.636;2023-03-13T06:44:02;97815.31;;;12.18;69.31
56992;BME280;42885;49.754;18.636;2023-03-13T06:46:34;97829.59;;;12.61;67.16
56992;BME280;42885;49.754;18.636;2023-03-13T06:49:05;97827.46;;;12.60;66.40
56992;BME280;42885;49.754;18.636;2023-03-13T06:51:36;97822.90;;;12.04;68.49
56992;BME280;42885;49.754;18.636;2023-03-13T06:54:07;97830.89;;;11.46;71.04
56992;BME280;42885;49.754;18.636;2023-03-13T06:56:39;97833.94;;;11.40;71.71
56992;BME280;42885;49.754;18.636;2023-03-13T06:59:10;97836.63;;;11.33;71.92
56992;BME280;42885;49.754;18.636;2023-03-13T07:01:41;97830.44;;;11.47;71.56
56992;BME280;42885;49.754;18.636;2023-03-13T07:04:12;97826.80;;;11.55;69.83
56992;BME280;42885;49.754;18.636;2023-03-13T07:06:45;97820.13;;;11.38;71.04
56992;BME280;42885;49.754;18.636;2023-03-13T07:09:16;97816.33;;;11.85;68.96
56992;BME280;42885;49.754;18.636;2023-03-13T07:11:49;97803.76;;;12.02;67.43
56992;BME280;42885;49.754;18.636;2023-03-13T07:14:20;97807.72;;;12.37;66.48
56992;BME280;42885;49.754;18.636;2023-03-13T07:16:51;97799.70;;;12.28;65.91
56992;BME280;42885;49.754;18.636;2023-03-13T07:19:22;97799.58;;;12.23;66.17
56992;BME280;42885;49.754;18.636;2023-03-13T07:21:54;97793.02;;;12.18;66.29
56992;BME280;42885;49.754;18.636;2023-03-13T07:24:26;97790.67;;;12.49;65.77
56992;BME280;42885;49.754;18.636;2023-03-13T07:27:00;97780.31;;;12.42;65.20
56992;BME280;42885;49.754;18.636;2023-03-13T07:29:31;97772.64;;;12.27;65.23
56992;BME280;42885;49.754;18.636;2023-03-13T07:32:02;97778.04;;;12.37;64.96
56992;BME280;42885;49.754;18.636;2023-03-13T07:34:33;97781.72;;;12.29;64.66
56992;BME280;42885;49.754;18.636;2023-03-13T07:37:05;97789.26;;;12.56;64.30
56992;BME280;42885;49.754;18.636;2023-03-13T07:39:36;97779.71;;;12.44;63.87
56992;BME280;42885;49.754;18.636;2023-03-13T07:42:11;97785.56;;;12.47;63.62
56992;BME280;42885;49.754;18.636;2023-03-13T07:44:43;97777.80;;;12.57;62.93
56992;BME280;42885;49.754;18.636;2023-03-13T07:47:15;97770.66;;;12.71;62.71
56992;BME280;42885;49.754;18.636;2023-03-13T07:49:46;97768.41;;;12.83;61.64
56992;BME280;42885;49.754;18.636;2023-03-13T07:52:17;97770.19;;;13.05;61.41
56992;BME280;42885;49.754;18.636;2023-03-13T07:54:48;97759.13;;;13.40;59.91
56992;BME280;42885;49.754;18.636;2023-03-13T07:57:20;97761.06;;;13.49;59.34
56992;BME280;42885;49.754;18.636;2023-03-13T07:59:51;97754.73;;;13.35;59.12
56992;BME280;42885;49.754;18.636;2023-03-13T08:02:22;97754.86;;;13.28;59.71
56992;BME280;42885;49.754;18.636;2023-03-13T08:04:54;97749.94;;;13.34;59.72
56992;BME280;42885;49.754;18.636;2023-03-13T08:07:25;97736.53;;;13.55;59.01
56992;BME280;42885;49.754;18.636;2023-03-13T08:09:56;97738.00;;;13.36;59.16
56992;BME280;42885;49.754;18.636;2023-03-13T08:12:28;97734.52;;;13.35;59.04
56992;BME280;42885;49.754;18.636;2023-03-13T08:14:59;97723.30;;;13.51;58.99
56992;BME280;42885;49.754;18.636;2023-03-13T08:17:30;97725.94;;;13.78;58.57
56992;BME280;42885;49.754;18.636;2023-03-13T08:20:01;97738.55;;;13.89;58.19
56992;BME280;42885;49.754;18.636;2023-03-13T08:22:32;97748.78;;;13.98;57.81
56992;BME280;42885;49.754;18.636;2023-03-13T08:25:08;97738.55;;;13.89;59.07
56992;BME280;42885;49.754;18.636;2023-03-13T08:27:39;97737.03;;;13.54;58.29
56992;BME280;42885;49.754;18.636;2023-03-13T08:30:10;97736.34;;;13.73;57.96
56992;BME280;42885;49.754;18.636;2023-03-13T08:32:42;97747.03;;;13.66;57.81
56992;BME280;42885;49.754;18.636;2023-03-13T08:35:13;97734.11;;;13.96;57.46
56992;BME280;42885;49.754;18.636;2023-03-13T08:37:44;97738.13;;;14.58;56.49
56992;BME280;42885;49.754;18.636;2023-03-13T08:40:15;97739.38;;;14.48;55.66
56992;BME280;42885;49.754;18.636;2023-03-13T08:42:47;97746.02;;;14.42;55.00
56992;BME280;42885;49.754;18.636;2023-03-13T08:45:18;97737.30;;;14.42;55.81
56992;BME280;42885;49.754;18.636;2023-03-13T08:47:53;97740.53;;;14.55;55.40
56992;BME280;42885;49.754;18.636;2023-03-13T08:50:25;97741.98;;;15.00;54.31
56992;BME280;42885;49.754;18.636;2023-03-13T08:52:56;97740.44;;;14.88;54.51
56992;BME280;42885;49.754;18.636;2023-03-13T08:55:27;97739.80;;;15.06;53.76
56992;BME280;42885;49.754;18.636;2023-03-13T08:57:58;97730.86;;;15.12;53.80
56992;BME280;42885;49.754;18.636;2023-03-13T09:00:29;97731.81;;;15.47;52.90
56992;BME280;42885;49.754;18.636;2023-03-13T09:03:00;97727.95;;;15.80;52.34
56992;BME280;42885;49.754;18.636;2023-03-13T09:05:31;97727.10;;;15.80;53.32
56992;BME280;42885;49.754;18.636;2023-03-13T09:08:03;97723.86;;;15.82;52.33
56992;BME280;42885;49.754;18.636;2023-03-13T09:10:34;97721.22;;;15.72;52.68
56992;BME280;42885;49.754;18.636;2023-03-13T09:13:05;97727.50;;;15.26;53.27
56992;BME280;42885;49.754;18.636;2023-03-13T09:15:36;97712.34;;;15.53;53.80
56992;BME280;42885;49.754;18.636;2023-03-13T09:18:08;97709.20;;;15.54;53.07
56992;BME280;42885;49.754;18.636;2023-03-13T09:20:43;97697.69;;;15.75;52.46
56992;BME280;42885;49.754;18.636;2023-03-13T09:23:12;97696.41;;;16.08;52.71
56992;BME280;42885;49.754;18.636;2023-03-13T09:25:43;97697.84;;;16.27;51.37
56992;BME280;42885;49.754;18.636;2023-03-13T09:28:15;97689.69;;;16.34;49.79
56992;BME280;42885;49.754;18.636;2023-03-13T09:30:46;97697.63;;;16.48;50.10
56992;BME280;42885;49.754;18.636;2023-03-13T09:33:19;97690.48;;;16.44;48.83
56992;BME280;42885;49.754;18.636;2023-03-13T09:35:52;97684.98;;;16.28;49.15
56992;BME280;42885;49.754;18.636;2023-03-13T09:38:26;97678.50;;;16.64;48.95
56992;BME280;42885;49.754;18.636;2023-03-13T09:41:04;97672.66;;;17.48;46.07
56992;BME280;42885;49.754;18.636;2023-03-13T09:49:27;97693.52;;;17.01;46.14
56992;BME280;42885;49.754;18.636;2023-03-13T09:52:18;97693.80;;;16.46;46.77
56992;BME280;42885;49.754;18.636;2023-03-13T09:57:38;97673.97;;;16.56;47.30
56992;BME280;42885;49.754;18.636;2023-03-13T10:00:24;97686.16;;;16.53;46.35
56992;BME280;42885;49.754;18.636;2023-03-13T10:03:13;97689.77;;;16.52;46.35
56992;BME280;42885;49.754;18.636;2023-03-13T10:05:56;97677.66;;;16.73;45.63
56992;BME280;42885;49.754;18.636;2023-03-13T10:08:23;97682.42;;;16.88;45.18
56992;BME280;42885;49.754;18.636;2023-03-13T10:11:06;97676.16;;;16.89;45.13
56992;BME280;42885;49.754;18.636;2023-03-13T10:13:50;97671.92;;;17.06;44.51
56992;BME280;42885;49.754;18.636;2023-03-13T10:16:43;97663.77;;;16.47;45.49
56992;BME280;42885;49.754;18.636;2023-03-13T10:19:26;97663.83;;;16.79;45.47
56992;BME280;42885;49.754;18.636;2023-03-13T10:21:52;97661.89;;;16.82;45.67
56992;BME280;42885;49.754;18.636;2023-03-13T10:25:23;97654.24;;;16.78;44.72
56992;BME280;42885;49.754;18.636;2023-03-13T10:27:10;97643.34;;;16.49;44.51
56992;BME280;42885;49.754;18.636;2023-03-13T10:29:41;97631.36;;;16.55;44.06
56992;BME280;42885;49.754;18.636;2023-03-13T10:32:14;97648.22;;;17.00;44.59
56992;BME280;42885;49.754;18.636;2023-03-13T10:37:26;97624.00;;;16.91;43.40
56992;BME280;42885;49.754;18.636;2023-03-13T10:40:24;97624.52;;;16.62;44.10
56992;BME280;42885;49.754;18.636;2023-03-13T10:43:02;97624.64;;;16.75;43.89
56992;BME280;42885;49.754;18.636;2023-03-13T10:45:37;97620.68;;;16.75;43.43
56992;BME280;42885;49.754;18.636;2023-03-13T10:48:19;97610.93;;;17.03;42.20
56992;BME280;42885;49.754;18.636;2023-03-13T10:50:54;97597.88;;;17.02;42.43
56992;BME280;42885;49.754;18.636;2023-03-13T10:56:11;97594.95;;;17.27;41.64
56992;BME280;42885;49.754;18.636;2023-03-13T10:58:45;97589.33;;;17.08;40.77
56992;BME280;42885;49.754;18.636;2023-03-13T11:01:38;97585.09;;;16.65;40.18
56992;BME280;42885;49.754;18.636;2023-03-13T11:03:58;97572.50;;;16.77;40.38
56992;BME280;42885;49.754;18.636;2023-03-13T11:06:31;97560.67;;;16.67;40.17
56992;BME280;42885;49.754;18.636;2023-03-13T11:09:16;97550.48;;;17.71;39.39
56992;BME280;42885;49.754;18.636;2023-03-13T11:11:53;97545.00;;;16.88;39.11
56992;BME280;42885;49.754;18.636;2023-03-13T11:14:25;97535.16;;;16.94;39.05
56992;BME280;42885;49.754;18.636;2023-03-13T11:23:25;97531.47;;;16.69;38.22
56992;BME280;42885;49.754;18.636;2023-03-13T11:27:21;97531.44;;;16.83;38.55
56992;BME280;42885;49.754;18.636;2023-03-13T11:29:16;97531.39;;;16.97;38.39
56992;BME280;42885;49.754;18.636;2023-03-13T11:31:53;97530.02;;;16.92;38.54
56992;BME280;42885;49.754;18.636;2023-03-13T11:34:51;97526.59;;;17.10;38.13
56992;BME280;42885;49.754;18.636;2023-03-13T11:37:18;97520.36;;;17.42;37.30
56992;BME280;42885;49.754;18.636;2023-03-13T11:40:16;97512.23;;;17.96;36.97
56992;BME280;42885;49.754;18.636;2023-03-13T11:49:07;97511.20;;;17.89;36.98
56992;BME280;42885;49.754;18.636;2023-03-13T11:51:53;97503.13;;;17.38;37.24
56992;BME280;42885;49.754;18.636;2023-03-13T11:57:25;97486.94;;;16.96;38.34
56992;BME280;42885;49.754;18.636;2023-03-13T12:00:15;97473.25;;;16.78;38.03
56992;BME280;42885;49.754;18.636;2023-03-13T12:02:58;97471.21;;;16.72;38.37
56992;BME280;42885;49.754;18.636;2023-03-13T12:05:37;97472.02;;;16.50;39.39
56992;BME280;42885;49.754;18.636;2023-03-13T12:08:05;97469.00;;;16.63;39.21
56992;BME280;42885;49.754;18.636;2023-03-13T12:10:45;97475.61;;;16.63;40.55
56992;BME280;42885;49.754;18.636;2023-03-13T12:13:15;97475.34;;;16.53;40.22
56992;BME280;42885;49.754;18.636;2023-03-13T12:15:50;97473.94;;;16.44;40.86
56992;BME280;42885;49.754;18.636;2023-03-13T12:18:39;97476.47;;;16.04;41.56
56992;BME280;42885;49.754;18.636;2023-03-13T12:24:18;97480.41;;;15.90;42.49
56992;BME280;42885;49.754;18.636;2023-03-13T12:29:57;97471.30;;;15.60;45.22
56992;BME280;42885;49.754;18.636;2023-03-13T12:32:42;97476.21;;;15.45;45.69
56992;BME280;42885;49.754;18.636;2023-03-13T12:35:33;97484.25;;;15.44;47.36
56992;BME280;42885;49.754;18.636;2023-03-13T12:38:11;97481.42;;;15.31;48.12
56992;BME280;42885;49.754;18.636;2023-03-13T12:43:51;97500.30;;;14.93;53.48
56992;BME280;42885;49.754;18.636;2023-03-13T12:46:30;97503.67;;;14.69;56.99
56992;BME280;42885;49.754;18.636;2023-03-13T12:58:05;97510.63;;;14.10;61.14
56992;BME280;42885;49.754;18.636;2023-03-13T13:00:35;97496.72;;;14.13;62.60
56992;BME280;42885;49.754;18.636;2023-03-13T13:08:42;97498.11;;;13.92;68.67
56992;BME280;42885;49.754;18.636;2023-03-13T13:19:47;97491.54;;;13.61;71.35
56992;BME280;42885;49.754;18.636;2023-03-13T13:27:47;97461.59;;;13.83;73.40
56992;BME280;42885;49.754;18.636;2023-03-13T13:32:54;97475.01;;;14.06;71.13
56992;BME280;42885;49.754;18.636;2023-03-13T13:35:37;97474.35;;;14.23;68.63
56992;BME280;42885;49.754;18.636;2023-03-13T13:38:32;97481.74;;;14.04;71.02
56992;BME280;42885;49.754;18.636;2023-03-13T13:43:47;97480.27;;;13.96;67.62
56992;BME280;42885;49.754;18.636;2023-03-13T13:49:12;97472.40;;;13.90;69.51
56992;BME280;42885;49.754;18.636;2023-03-13T13:52:15;97469.19;;;14.02;69.17
56992;BME280;42885;49.754;18.636;2023-03-13T13:57:22;97456.06;;;14.12;66.43
56992;BME280;42885;49.754;18.636;2023-03-13T14:02:56;97458.00;;;14.10;66.33
56992;BME280;42885;49.754;18.636;2023-03-13T14:05:28;97468.41;;;14.76;63.20
56992;BME280;42885;49.754;18.636;2023-03-13T14:08:32;97477.73;;;14.10;66.26
56992;BME280;42885;49.754;18.636;2023-03-13T14:16:37;97488.33;;;14.59;64.60
56992;BME280;42885;49.754;18.636;2023-03-13T14:19:28;97470.87;;;14.58;63.93
56992;BME280;42885;49.754;18.636;2023-03-13T14:22:06;97464.70;;;14.53;64.26
56992;BME280;42885;49.754;18.636;2023-03-13T14:24:37;97459.00;;;14.48;65.02
56992;BME280;42885;49.754;18.636;2023-03-13T14:27:18;97433.12;;;14.63;62.02
56992;BME280;42885;49.754;18.636;2023-03-13T14:30:02;97428.05;;;14.26;64.14
56992;BME280;42885;49.754;18.636;2023-03-13T14:32:34;97438.48;;;14.22;67.94
56992;BME280;42885;49.754;18.636;2023-03-13T14:35:06;97437.80;;;14.20;65.77
56992;BME280;42885;49.754;18.636;2023-03-13T14:40:20;97430.66;;;13.81;68.14
56992;BME280;42885;49.754;18.636;2023-03-13T14:42:59;97422.39;;;14.06;66.41
56992;BME280;42885;49.754;18.636;2023-03-13T14:45:33;97417.60;;;13.95;66.21
56992;BME280;42885;49.754;18.636;2023-03-13T14:48:18;97416.73;;;14.00;65.97
56992;BME280;42885;49.754;18.636;2023-03-13T14:50:53;97418.69;;;14.18;65.08
56992;BME280;42885;49.754;18.636;2023-03-13T14:53:25;97398.41;;;14.24;63.78
56992;BME280;42885;49.754;18.636;2023-03-13T14:56:18;97396.05;;;14.31;62.98
56992;BME280;42885;49.754;18.636;2023-03-13T14:58:45;97383.08;;;14.63;62.06
56992;BME280;42885;49.754;18.636;2023-03-13T15:01:26;97382.61;;;14.44;63.50
56992;BME280;42885;49.754;18.636;2023-03-13T15:03:59;97374.09;;;14.26;65.09
56992;BME280;42885;49.754;18.636;2023-03-13T15:06:32;97369.09;;;14.23;65.32
56992;BME280;42885;49.754;18.636;2023-03-13T15:09:18;97373.81;;;14.10;66.67
56992;BME280;42885;49.754;18.636;2023-03-13T15:11:55;97379.83;;;14.06;66.45
56992;BME280;42885;49.754;18.636;2023-03-13T15:14:39;97371.18;;;14.10;66.91